Airfield :
LOGIN :

Register | Disclaimer

   EN    FR    IT 

 










Legend :    VFR   Marginal VFR   IFR   Intensive IFR   Very Intensive IFR
Visi :
Ceiling :
>= 8 km
>= 3000ft
5 to 8 km
1000 to 3000 ft
1500m to 5 km
500 to 1000 ft
800 to 1500m
200 to 500 ft
< 800m
< 200 ft
Symbols :   Thunderstorms  Fog  Heavy snow  Heavy precipitations  Wind > 20 kt
SIGMETs :     Misc.  Thunderstorms  Icing  Turbulence  Mountain Waves  Volcanic Ashes






- Airport Elevation : 405 ft
- IATA code : ODH


EGVO - RAF Odiham

CURRENT METAR :
  • 021050Z 21011KT 9999 FEW028 BKN038 17/10 Q1018 NOSIG RMK BLU BLU

EXPIRED METARs :
  • 021020Z 20015KT 9999 FEW032 SCT040 17/09 Q1018 NOSIG RMK BLU BLU
  • 020950Z 20016KT 9999 SCT026 SCT250 19/11 Q1018 NOSIG RMK BLU BLU
  • 020920Z 20017KT 9999 SCT025 SCT039 18/11 Q1018 NOSIG RMK BLU BLU
  • 020850Z 19015KT 9999 SCT025 BKN250 18/11 Q1018 NOSIG RMK BLU BLU
  • 020820Z 18015KT 9999 SCT021 BKN250 17/11 Q1018 BECMG SCT025 RMK WHT BECMG BLU

TAF TAF EGVO
Valid from the 02 at 12:00 until the 03 at 00:00 UTC


021019Z 0212/0224 20014KT 9999 SCT030
PROB30
TEMPO 0212/0215 22015G25KT
TEMPO 0213/0220 6000 SHRA BKN018



MET'MAP, your aeronautical weather chart ! - Copyright ORBIFLY December 2007 - Disclaimer

ORBIFLY MET'MAP TEAM :

Programming & Development : Alexandra Zaïnal
Original concept : Baudouin d'Aumeries
Technical & hardware support : Manuel Goepfert
Assistance : Marc-Olivier Méhu




SOURCES & CREDITS :

   NOAA